This is the latest recevied weather packets stored in our database for station/object OK4PZ-5. If no packets are shown the sender has not sent any weather packets the latest 10 day(s).
| Time | Temp. | Humidity | Pressure | Rain* | Wind** | Luminosity | Snow |
|---|---|---|---|---|---|---|---|
| 1777365903 | 15° C | 35% | 1022 hPa | 0 mm | - | - | - |
| 1777365003 | 14.44° C | 36% | 1023 hPa | 0 mm | - | - | - |
| 1777364102 | 14.44° C | 36% | 1022 hPa | 0 mm | - | - | - |
| 1777363202 | 13.89° C | 37% | 1022 hPa | 0 mm | - | - | - |
| 1777362302 | 13.89° C | 37% | 1022 hPa | 0 mm | - | - | - |
| 1777361403 | 13.89° C | 37% | 1022 hPa | 0 mm | - | - | - |
| 1777360503 | 12.78° C | 39% | 1022 hPa | 0 mm | - | - | - |
| 1777359602 | 12.22° C | 45% | 1022 hPa | 0 mm | - | - | - |
| 1777358702 | 10.56° C | 48% | 1022 hPa | 0 mm | - | - | - |
| 1777357802 | 10° C | 49% | 1022 hPa | 0 mm | - | - | - |
| 1777356903 | 8.33° C | 60% | 1022 hPa | 0 mm | - | - | - |
| 1777356002 | 7.22° C | 66% | 1022 hPa | 0 mm | - | - | - |
| 1777355102 | 6.11° C | 74% | 1022 hPa | 0 mm | - | - | - |
| 1777354202 | 5° C | 78% | 1022 hPa | 0 mm | - | - | - |
| 1777353302 | 3.89° C | 79% | 1022 hPa | 0 mm | - | - | - |
| 1777352402 | 2.78° C | 81% | 1022 hPa | 0 mm | - | - | - |
| 1777351502 | 2.22° C | 83% | 1022 hPa | 0 mm | - | - | - |
| 1777350602 | 2.22° C | 84% | 1022 hPa | 0 mm | - | - | - |
| 1777349702 | 1.11° C | 87% | 1022 hPa | 0 mm | - | - | - |
| 1777348802 | 1.11° C | 87% | 1022 hPa | 0 mm | - | - | - |
| 1777347902 | 1.11° C | 88% | 1022 hPa | 0 mm | - | - | - |
| 1777347003 | 0.56° C | 89% | 1022 hPa | 0 mm | - | - | - |
| 1777346102 | 1.11° C | 88% | 1022 hPa | 0 mm | - | - | - |
| 1777345202 | 1.11° C | 86% | 1022 hPa | 0 mm | - | - | - |
| 1777344302 | 1.11° C | 86% | 1022 hPa | 0 mm | - | - | - |
* Rain latest hour (hover to see other rain measurements)
** Current wind speed in m/s (hover to see current wind gust speed)